sensor_id;sensor_type;location;lat;lon;timestamp;pressure;altitude;pressure_sealevel;temperature
71081;BMP180;58740;50.672;18.690;2023-06-19T00:01:15;98965.80;;;17.00
71081;BMP180;58740;50.672;18.690;2023-06-19T00:03:43;98965.00;;;16.94
71081;BMP180;58740;50.672;18.690;2023-06-19T00:06:11;98968.20;;;16.90
71081;BMP180;58740;50.672;18.690;2023-06-19T00:08:40;98963.40;;;16.84
71081;BMP180;58740;50.672;18.690;2023-06-19T00:11:10;98966.60;;;16.80
71081;BMP180;58740;50.672;18.690;2023-06-19T00:13:38;98960.60;;;16.80
71081;BMP180;58740;50.672;18.690;2023-06-19T00:16:07;98961.60;;;16.76
71081;BMP180;58740;50.672;18.690;2023-06-19T00:18:35;98959.60;;;16.70
71081;BMP180;58740;50.672;18.690;2023-06-19T00:21:08;98962.80;;;16.70
71081;BMP180;58740;50.672;18.690;2023-06-19T00:23:36;98963.00;;;16.66
71081;BMP180;58740;50.672;18.690;2023-06-19T00:26:04;98962.40;;;16.60
71081;BMP180;58740;50.672;18.690;2023-06-19T00:28:31;98963.40;;;16.60
71081;BMP180;58740;50.672;18.690;2023-06-19T00:30:59;98966.00;;;16.60
71081;BMP180;58740;50.672;18.690;2023-06-19T00:33:27;98967.80;;;16.60
71081;BMP180;58740;50.672;18.690;2023-06-19T00:35:56;98966.40;;;16.58
71081;BMP180;58740;50.672;18.690;2023-06-19T00:38:24;98972.00;;;16.50
71081;BMP180;58740;50.672;18.690;2023-06-19T00:40:52;98970.00;;;16.50
71081;BMP180;58740;50.672;18.690;2023-06-19T00:43:20;98966.40;;;16.50
71081;BMP180;58740;50.672;18.690;2023-06-19T00:45:47;98966.20;;;16.40
71081;BMP180;58740;50.672;18.690;2023-06-19T00:48:15;98966.80;;;16.40
71081;BMP180;58740;50.672;18.690;2023-06-19T00:50:43;98964.40;;;16.40
71081;BMP180;58740;50.672;18.690;2023-06-19T00:53:12;98965.40;;;16.40
71081;BMP180;58740;50.672;18.690;2023-06-19T00:55:39;98961.00;;;16.40
71081;BMP180;58740;50.672;18.690;2023-06-19T00:58:07;98961.40;;;16.36
71081;BMP180;58740;50.672;18.690;2023-06-19T01:00:35;98961.80;;;16.30
71081;BMP180;58740;50.672;18.690;2023-06-19T01:03:03;98959.20;;;16.30
71081;BMP180;58740;50.672;18.690;2023-06-19T01:05:32;98951.80;;;16.30
71081;BMP180;58740;50.672;18.690;2023-06-19T01:09:05;98951.00;;;16.30
71081;BMP180;58740;50.672;18.690;2023-06-19T01:11:41;98951.00;;;16.30
71081;BMP180;58740;50.672;18.690;2023-06-19T01:14:21;98952.00;;;16.30
71081;BMP180;58740;50.672;18.690;2023-06-19T01:16:53;98947.00;;;16.22
71081;BMP180;58740;50.672;18.690;2023-06-19T01:19:22;98951.80;;;16.20
71081;BMP180;58740;50.672;18.690;2023-06-19T01:21:50;98950.80;;;16.20
71081;BMP180;58740;50.672;18.690;2023-06-19T01:24:18;98953.00;;;16.14
71081;BMP180;58740;50.672;18.690;2023-06-19T01:26:45;98941.00;;;16.10
71081;BMP180;58740;50.672;18.690;2023-06-19T01:29:15;98940.20;;;16.10
71081;BMP180;58740;50.672;18.690;2023-06-19T01:32:05;98940.20;;;16.10
71081;BMP180;58740;50.672;18.690;2023-06-19T01:34:37;98939.60;;;16.10
71081;BMP180;58740;50.672;18.690;2023-06-19T01:37:10;98935.00;;;16.10
71081;BMP180;58740;50.672;18.690;2023-06-19T01:39:40;98936.60;;;16.00
71081;BMP180;58740;50.672;18.690;2023-06-19T01:42:09;98935.60;;;16.00
71081;BMP180;58740;50.672;18.690;2023-06-19T01:44:39;98934.20;;;16.00
71081;BMP180;58740;50.672;18.690;2023-06-19T01:47:10;98937.60;;;15.90
71081;BMP180;58740;50.672;18.690;2023-06-19T01:49:38;98941.20;;;15.90
71081;BMP180;58740;50.672;18.690;2023-06-19T01:52:06;98938.60;;;15.90
71081;BMP180;58740;50.672;18.690;2023-06-19T01:54:34;98939.40;;;15.80
71081;BMP180;58740;50.672;18.690;2023-06-19T01:57:02;98940.00;;;15.80
71081;BMP180;58740;50.672;18.690;2023-06-19T01:59:30;98946.60;;;15.72
71081;BMP180;58740;50.672;18.690;2023-06-19T02:01:57;98936.40;;;15.70
71081;BMP180;58740;50.672;18.690;2023-06-19T02:04:25;98934.60;;;15.68
71081;BMP180;58740;50.672;18.690;2023-06-19T02:06:53;98934.60;;;15.60
71081;BMP180;58740;50.672;18.690;2023-06-19T02:09:21;98937.60;;;15.60
71081;BMP180;58740;50.672;18.690;2023-06-19T02:11:48;98938.00;;;15.56
71081;BMP180;58740;50.672;18.690;2023-06-19T02:14:16;98936.00;;;15.50
71081;BMP180;58740;50.672;18.690;2023-06-19T02:16:44;98942.60;;;15.50
71081;BMP180;58740;50.672;18.690;2023-06-19T02:19:12;98938.20;;;15.50
71081;BMP180;58740;50.672;18.690;2023-06-19T02:21:40;98940.80;;;15.50
71081;BMP180;58740;50.672;18.690;2023-06-19T02:24:08;98938.40;;;15.50
71081;BMP180;58740;50.672;18.690;2023-06-19T02:26:36;98944.00;;;15.50
71081;BMP180;58740;50.672;18.690;2023-06-19T02:29:03;98943.80;;;15.44
71081;BMP180;58740;50.672;18.690;2023-06-19T02:31:31;98948.80;;;15.40
71081;BMP180;58740;50.672;18.690;2023-06-19T02:33:59;98949.80;;;15.40
71081;BMP180;58740;50.672;18.690;2023-06-19T02:36:26;98948.60;;;15.40
71081;BMP180;58740;50.672;18.690;2023-06-19T02:38:54;98946.60;;;15.40
71081;BMP180;58740;50.672;18.690;2023-06-19T02:41:22;98940.60;;;15.40
71081;BMP180;58740;50.672;18.690;2023-06-19T02:43:50;98943.00;;;15.40
71081;BMP180;58740;50.672;18.690;2023-06-19T02:46:18;98945.60;;;15.40
71081;BMP180;58740;50.672;18.690;2023-06-19T02:48:45;98942.40;;;15.34
71081;BMP180;58740;50.672;18.690;2023-06-19T02:51:13;98951.00;;;15.38
71081;BMP180;58740;50.672;18.690;2023-06-19T02:53:41;98952.00;;;15.36
71081;BMP180;58740;50.672;18.690;2023-06-19T02:56:11;98954.80;;;15.38
71081;BMP180;58740;50.672;18.690;2023-06-19T02:58:40;98949.80;;;15.30
71081;BMP180;58740;50.672;18.690;2023-06-19T03:01:07;98953.80;;;15.30
71081;BMP180;58740;50.672;18.690;2023-06-19T03:03:36;98953.60;;;15.30
71081;BMP180;58740;50.672;18.690;2023-06-19T03:06:07;98960.80;;;15.30
71081;BMP180;58740;50.672;18.690;2023-06-19T03:08:36;98959.80;;;15.30
71081;BMP180;58740;50.672;18.690;2023-06-19T03:11:05;98960.80;;;15.30
71081;BMP180;58740;50.672;18.690;2023-06-19T03:13:54;98959.80;;;15.30
71081;BMP180;58740;50.672;18.690;2023-06-19T03:16:22;98959.80;;;15.30
71081;BMP180;58740;50.672;18.690;2023-06-19T03:18:50;98960.40;;;15.30
71081;BMP180;58740;50.672;18.690;2023-06-19T03:21:19;98955.00;;;15.30
71081;BMP180;58740;50.672;18.690;2023-06-19T03:23:47;98955.00;;;15.30
71081;BMP180;58740;50.672;18.690;2023-06-19T03:26:15;98954.80;;;15.30
71081;BMP180;58740;50.672;18.690;2023-06-19T03:28:43;98953.60;;;15.30
71081;BMP180;58740;50.672;18.690;2023-06-19T03:31:10;98954.00;;;15.30
71081;BMP180;58740;50.672;18.690;2023-06-19T03:33:38;98951.80;;;15.36
71081;BMP180;58740;50.672;18.690;2023-06-19T03:36:06;98953.00;;;15.40
71081;BMP180;58740;50.672;18.690;2023-06-19T03:38:35;98951.20;;;15.44
71081;BMP180;58740;50.672;18.690;2023-06-19T03:41:02;98956.00;;;15.50
71081;BMP180;58740;50.672;18.690;2023-06-19T03:43:30;98959.00;;;15.52
71081;BMP180;58740;50.672;18.690;2023-06-19T03:45:58;98958.00;;;15.60
71081;BMP180;58740;50.672;18.690;2023-06-19T03:48:26;98961.40;;;15.70
71081;BMP180;58740;50.672;18.690;2023-06-19T03:50:54;98963.40;;;15.70
71081;BMP180;58740;50.672;18.690;2023-06-19T03:53:22;98966.20;;;15.80
71081;BMP180;58740;50.672;18.690;2023-06-19T03:55:50;98959.00;;;15.80
71081;BMP180;58740;50.672;18.690;2023-06-19T03:58:20;98966.40;;;15.90
71081;BMP180;58740;50.672;18.690;2023-06-19T04:00:48;98964.00;;;15.92
71081;BMP180;58740;50.672;18.690;2023-06-19T04:03:16;98971.60;;;16.00
71081;BMP180;58740;50.672;18.690;2023-06-19T04:05:43;98968.80;;;16.08
71081;BMP180;58740;50.672;18.690;2023-06-19T04:08:11;98969.00;;;16.10
71081;BMP180;58740;50.672;18.690;2023-06-19T04:10:39;98972.00;;;16.10
71081;BMP180;58740;50.672;18.690;2023-06-19T04:13:07;98971.20;;;16.20
71081;BMP180;58740;50.672;18.690;2023-06-19T04:15:35;98974.40;;;16.20
71081;BMP180;58740;50.672;18.690;2023-06-19T04:18:04;98968.60;;;16.28
71081;BMP180;58740;50.672;18.690;2023-06-19T04:20:32;98974.60;;;16.30
71081;BMP180;58740;50.672;18.690;2023-06-19T04:23:01;98971.20;;;16.30
71081;BMP180;58740;50.672;18.690;2023-06-19T04:25:29;98969.00;;;16.32
71081;BMP180;58740;50.672;18.690;2023-06-19T04:27:57;98968.40;;;16.40
71081;BMP180;58740;50.672;18.690;2023-06-19T04:30:25;98965.80;;;16.40
71081;BMP180;58740;50.672;18.690;2023-06-19T04:32:53;98968.40;;;16.50
71081;BMP180;58740;50.672;18.690;2023-06-19T04:35:21;98968.40;;;16.54
71081;BMP180;58740;50.672;18.690;2023-06-19T04:37:52;98966.40;;;16.60
71081;BMP180;58740;50.672;18.690;2023-06-19T04:40:20;98965.20;;;16.60
71081;BMP180;58740;50.672;18.690;2023-06-19T04:42:48;98965.00;;;16.68
71081;BMP180;58740;50.672;18.690;2023-06-19T04:45:16;98958.20;;;16.70
71081;BMP180;58740;50.672;18.690;2023-06-19T04:47:44;98967.40;;;16.80
71081;BMP180;58740;50.672;18.690;2023-06-19T04:50:21;98968.20;;;16.90
71081;BMP180;58740;50.672;18.690;2023-06-19T04:52:50;98970.80;;;16.90
71081;BMP180;58740;50.672;18.690;2023-06-19T04:55:19;98967.20;;;17.00
71081;BMP180;58740;50.672;18.690;2023-06-19T04:57:47;98971.40;;;17.10
71081;BMP180;58740;50.672;18.690;2023-06-19T05:00:16;98974.80;;;17.20
71081;BMP180;58740;50.672;18.690;2023-06-19T05:02:47;98977.40;;;17.30
71081;BMP180;58740;50.672;18.690;2023-06-19T05:05:16;98980.80;;;17.40
71081;BMP180;58740;50.672;18.690;2023-06-19T05:07:46;98982.20;;;17.50
71081;BMP180;58740;50.672;18.690;2023-06-19T05:10:14;98984.20;;;17.60
71081;BMP180;58740;50.672;18.690;2023-06-19T05:12:43;98983.40;;;17.70
71081;BMP180;58740;50.672;18.690;2023-06-19T05:15:11;98975.60;;;17.72
71081;BMP180;58740;50.672;18.690;2023-06-19T05:17:39;98971.60;;;17.80
71081;BMP180;58740;50.672;18.690;2023-06-19T05:20:07;98967.00;;;17.90
71081;BMP180;58740;50.672;18.690;2023-06-19T05:22:36;98961.80;;;18.00
71081;BMP180;58740;50.672;18.690;2023-06-19T05:25:05;98963.20;;;18.10
71081;BMP180;58740;50.672;18.690;2023-06-19T05:27:33;98966.00;;;18.20
71081;BMP180;58740;50.672;18.690;2023-06-19T05:30:01;98970.20;;;18.30
71081;BMP180;58740;50.672;18.690;2023-06-19T05:32:29;98979.00;;;18.40
71081;BMP180;58740;50.672;18.690;2023-06-19T05:34:57;98981.00;;;18.48
71081;BMP180;58740;50.672;18.690;2023-06-19T05:37:25;98981.60;;;18.58
71081;BMP180;58740;50.672;18.690;2023-06-19T05:39:54;98978.80;;;18.70
71081;BMP180;58740;50.672;18.690;2023-06-19T05:42:22;98983.00;;;18.80
71081;BMP180;58740;50.672;18.690;2023-06-19T05:44:50;98993.80;;;18.94
71081;BMP180;58740;50.672;18.690;2023-06-19T05:47:18;98992.00;;;19.10
71081;BMP180;58740;50.672;18.690;2023-06-19T05:49:48;98991.20;;;19.20
71081;BMP180;58740;50.672;18.690;2023-06-19T05:52:16;98993.20;;;19.30
71081;BMP180;58740;50.672;18.690;2023-06-19T05:54:44;98983.40;;;19.40
71081;BMP180;58740;50.672;18.690;2023-06-19T05:57:13;98989.60;;;19.50
71081;BMP180;58740;50.672;18.690;2023-06-19T05:59:43;98987.60;;;19.70
71081;BMP180;58740;50.672;18.690;2023-06-19T06:02:11;98987.60;;;19.80
71081;BMP180;58740;50.672;18.690;2023-06-19T06:04:39;98995.40;;;20.00
71081;BMP180;58740;50.672;18.690;2023-06-19T06:07:07;98999.20;;;20.20
71081;BMP180;58740;50.672;18.690;2023-06-19T06:09:35;98999.40;;;20.30
71081;BMP180;58740;50.672;18.690;2023-06-19T06:12:04;99001.20;;;20.42
71081;BMP180;58740;50.672;18.690;2023-06-19T06:14:32;99005.40;;;20.60
71081;BMP180;58740;50.672;18.690;2023-06-19T06:17:00;99000.20;;;20.70
71081;BMP180;58740;50.672;18.690;2023-06-19T06:19:28;98996.40;;;20.80
71081;BMP180;58740;50.672;18.690;2023-06-19T06:21:59;98994.20;;;20.96
71081;BMP180;58740;50.672;18.690;2023-06-19T06:24:27;98993.20;;;21.04
71081;BMP180;58740;50.672;18.690;2023-06-19T06:26:55;98992.80;;;21.20
71081;BMP180;58740;50.672;18.690;2023-06-19T06:29:23;98990.80;;;21.30
71081;BMP180;58740;50.672;18.690;2023-06-19T06:31:51;98989.60;;;21.50
71081;BMP180;58740;50.672;18.690;2023-06-19T06:34:22;98998.40;;;21.60
71081;BMP180;58740;50.672;18.690;2023-06-19T06:36:50;98996.20;;;21.70
71081;BMP180;58740;50.672;18.690;2023-06-19T06:39:33;99002.60;;;21.90
71081;BMP180;58740;50.672;18.690;2023-06-19T06:42:01;99001.20;;;22.00
71081;BMP180;58740;50.672;18.690;2023-06-19T06:44:30;99002.60;;;22.10
71081;BMP180;58740;50.672;18.690;2023-06-19T06:46:58;99005.20;;;22.20
71081;BMP180;58740;50.672;18.690;2023-06-19T06:49:25;99014.20;;;22.36
71081;BMP180;58740;50.672;18.690;2023-06-19T06:51:53;99010.00;;;22.40
71081;BMP180;58740;50.672;18.690;2023-06-19T06:54:24;99011.60;;;22.50
71081;BMP180;58740;50.672;18.690;2023-06-19T06:56:52;99018.00;;;22.60
71081;BMP180;58740;50.672;18.690;2023-06-19T06:59:24;99015.80;;;22.70
71081;BMP180;58740;50.672;18.690;2023-06-19T07:01:54;99011.00;;;22.80
71081;BMP180;58740;50.672;18.690;2023-06-19T07:04:23;99019.00;;;22.90
71081;BMP180;58740;50.672;18.690;2023-06-19T07:06:50;99022.00;;;22.98
71081;BMP180;58740;50.672;18.690;2023-06-19T07:09:18;99018.20;;;23.00
71081;BMP180;58740;50.672;18.690;2023-06-19T07:11:46;99017.00;;;23.10
71081;BMP180;58740;50.672;18.690;2023-06-19T07:14:14;99022.20;;;23.10
71081;BMP180;58740;50.672;18.690;2023-06-19T07:16:46;99027.00;;;23.20
71081;BMP180;58740;50.672;18.690;2023-06-19T07:19:14;99022.60;;;23.30
71081;BMP180;58740;50.672;18.690;2023-06-19T07:21:43;99026.40;;;23.30
71081;BMP180;58740;50.672;18.690;2023-06-19T07:24:11;99025.00;;;23.40
71081;BMP180;58740;50.672;18.690;2023-06-19T07:26:39;99026.40;;;23.32
71081;BMP180;58740;50.672;18.690;2023-06-19T07:29:07;99023.80;;;23.40
71081;BMP180;58740;50.672;18.690;2023-06-19T07:31:34;99028.00;;;23.50
71081;BMP180;58740;50.672;18.690;2023-06-19T07:34:02;99025.00;;;23.58
71081;BMP180;58740;50.672;18.690;2023-06-19T07:36:30;99028.60;;;23.60
71081;BMP180;58740;50.672;18.690;2023-06-19T07:38:58;99028.40;;;23.70
71081;BMP180;58740;50.672;18.690;2023-06-19T07:41:25;99030.80;;;23.74
71081;BMP180;58740;50.672;18.690;2023-06-19T07:43:53;99030.00;;;23.80
71081;BMP180;58740;50.672;18.690;2023-06-19T07:46:21;99028.20;;;23.90
71081;BMP180;58740;50.672;18.690;2023-06-19T07:48:49;99033.60;;;24.00
71081;BMP180;58740;50.672;18.690;2023-06-19T07:51:17;99029.00;;;24.00
71081;BMP180;58740;50.672;18.690;2023-06-19T07:53:44;99031.00;;;24.10
71081;BMP180;58740;50.672;18.690;2023-06-19T07:56:12;99033.60;;;24.16
71081;BMP180;58740;50.672;18.690;2023-06-19T07:58:40;99025.60;;;24.20
71081;BMP180;58740;50.672;18.690;2023-06-19T08:01:08;99022.40;;;24.22
71081;BMP180;58740;50.672;18.690;2023-06-19T08:03:37;99020.20;;;24.28
71081;BMP180;58740;50.672;18.690;2023-06-19T08:06:05;99020.00;;;24.30
71081;BMP180;58740;50.672;18.690;2023-06-19T08:08:33;99017.80;;;24.30
71081;BMP180;58740;50.672;18.690;2023-06-19T08:11:18;99013.00;;;24.40
71081;BMP180;58740;50.672;18.690;2023-06-19T08:13:46;99010.80;;;24.40
71081;BMP180;58740;50.672;18.690;2023-06-19T08:16:14;99007.80;;;24.34
71081;BMP180;58740;50.672;18.690;2023-06-19T08:18:44;99014.40;;;24.40
71081;BMP180;58740;50.672;18.690;2023-06-19T08:21:13;99013.00;;;24.40
71081;BMP180;58740;50.672;18.690;2023-06-19T08:23:40;99014.00;;;24.50
71081;BMP180;58740;50.672;18.690;2023-06-19T08:26:11;99012.40;;;24.50
71081;BMP180;58740;50.672;18.690;2023-06-19T08:28:39;99015.80;;;24.50
71081;BMP180;58740;50.672;18.690;2023-06-19T08:31:09;99014.40;;;24.50
71081;BMP180;58740;50.672;18.690;2023-06-19T08:33:37;99015.80;;;24.50
71081;BMP180;58740;50.672;18.690;2023-06-19T08:36:04;99017.80;;;24.52
71081;BMP180;58740;50.672;18.690;2023-06-19T08:38:32;99019.60;;;24.60
71081;BMP180;58740;50.672;18.690;2023-06-19T08:41:00;99020.60;;;24.66
71081;BMP180;58740;50.672;18.690;2023-06-19T08:43:28;99019.20;;;24.70
71081;BMP180;58740;50.672;18.690;2023-06-19T08:48:38;99018.80;;;24.70
71081;BMP180;58740;50.672;18.690;2023-06-19T08:51:07;99023.80;;;24.78
71081;BMP180;58740;50.672;18.690;2023-06-19T08:53:47;99024.40;;;24.80
71081;BMP180;58740;50.672;18.690;2023-06-19T08:56:15;99020.20;;;24.82
71081;BMP180;58740;50.672;18.690;2023-06-19T08:58:43;99018.40;;;24.84
71081;BMP180;58740;50.672;18.690;2023-06-19T09:01:13;99022.00;;;24.90
71081;BMP180;58740;50.672;18.690;2023-06-19T09:03:41;99015.20;;;24.90
71081;BMP180;58740;50.672;18.690;2023-06-19T09:06:09;99010.60;;;24.90
71081;BMP180;58740;50.672;18.690;2023-06-19T09:08:37;99013.00;;;24.90
71081;BMP180;58740;50.672;18.690;2023-06-19T09:11:05;99008.40;;;24.90
71081;BMP180;58740;50.672;18.690;2023-06-19T09:13:37;99008.00;;;24.98
71081;BMP180;58740;50.672;18.690;2023-06-19T09:16:08;99001.60;;;24.90
71081;BMP180;58740;50.672;18.690;2023-06-19T09:18:46;98998.60;;;24.90
71081;BMP180;58740;50.672;18.690;2023-06-19T09:21:21;98998.60;;;24.90
71081;BMP180;58740;50.672;18.690;2023-06-19T09:23:52;98996.40;;;24.90
71081;BMP180;58740;50.672;18.690;2023-06-19T09:26:21;99000.20;;;24.90
71081;BMP180;58740;50.672;18.690;2023-06-19T09:28:48;99003.80;;;24.90
71081;BMP180;58740;50.672;18.690;2023-06-19T09:31:18;99003.40;;;24.90
71081;BMP180;58740;50.672;18.690;2023-06-19T09:33:45;99002.20;;;24.90
71081;BMP180;58740;50.672;18.690;2023-06-19T09:36:14;99001.00;;;24.90
71081;BMP180;58740;50.672;18.690;2023-06-19T09:38:42;98999.60;;;24.90
71081;BMP180;58740;50.672;18.690;2023-06-19T09:41:10;98992.40;;;24.90
71081;BMP180;58740;50.672;18.690;2023-06-19T09:43:43;99001.60;;;25.00
71081;BMP180;58740;50.672;18.690;2023-06-19T09:46:14;99001.40;;;25.00
71081;BMP180;58740;50.672;18.690;2023-06-19T09:48:45;98989.00;;;25.00
71081;BMP180;58740;50.672;18.690;2023-06-19T09:51:29;98996.00;;;25.00
71081;BMP180;58740;50.672;18.690;2023-06-19T09:53:59;98984.80;;;25.00
71081;BMP180;58740;50.672;18.690;2023-06-19T09:56:29;98990.80;;;25.00
71081;BMP180;58740;50.672;18.690;2023-06-19T09:58:59;98989.60;;;24.90
71081;BMP180;58740;50.672;18.690;2023-06-19T10:01:30;98986.00;;;24.90
71081;BMP180;58740;50.672;18.690;2023-06-19T10:04:05;98985.00;;;24.90
71081;BMP180;58740;50.672;18.690;2023-06-19T10:06:43;98978.40;;;24.90
71081;BMP180;58740;50.672;18.690;2023-06-19T10:09:15;98985.40;;;24.90
71081;BMP180;58740;50.672;18.690;2023-06-19T10:11:52;98987.20;;;24.90
71081;BMP180;58740;50.672;18.690;2023-06-19T10:14:21;98986.20;;;24.90
71081;BMP180;58740;50.672;18.690;2023-06-19T10:16:49;98985.60;;;25.00
71081;BMP180;58740;50.672;18.690;2023-06-19T10:19:21;98986.20;;;25.00
71081;BMP180;58740;50.672;18.690;2023-06-19T10:21:54;98975.60;;;25.00
71081;BMP180;58740;50.672;18.690;2023-06-19T10:24:23;98982.00;;;25.08
71081;BMP180;58740;50.672;18.690;2023-06-19T10:27:00;98978.80;;;25.10
71081;BMP180;58740;50.672;18.690;2023-06-19T10:29:39;98974.00;;;25.10
71081;BMP180;58740;50.672;18.690;2023-06-19T10:32:12;98973.80;;;25.10
71081;BMP180;58740;50.672;18.690;2023-06-19T10:34:45;98968.80;;;25.18
71081;BMP180;58740;50.672;18.690;2023-06-19T10:37:16;98967.80;;;25.20
71081;BMP180;58740;50.672;18.690;2023-06-19T10:39:43;98964.80;;;25.20
71081;BMP180;58740;50.672;18.690;2023-06-19T10:42:11;98973.20;;;25.28
71081;BMP180;58740;50.672;18.690;2023-06-19T10:44:39;98969.20;;;25.30
71081;BMP180;58740;50.672;18.690;2023-06-19T10:47:09;98969.00;;;25.30
71081;BMP180;58740;50.672;18.690;2023-06-19T10:49:38;98969.20;;;25.30
71081;BMP180;58740;50.672;18.690;2023-06-19T10:52:07;98971.40;;;25.30
71081;BMP180;58740;50.672;18.690;2023-06-19T10:54:35;98971.20;;;25.30
71081;BMP180;58740;50.672;18.690;2023-06-19T10:57:06;98968.20;;;25.34
71081;BMP180;58740;50.672;18.690;2023-06-19T10:59:34;98971.80;;;25.40
71081;BMP180;58740;50.672;18.690;2023-06-19T11:02:02;98963.20;;;25.40
71081;BMP180;58740;50.672;18.690;2023-06-19T11:04:30;98960.20;;;25.30
71081;BMP180;58740;50.672;18.690;2023-06-19T11:07:05;98967.40;;;25.30
71081;BMP180;58740;50.672;18.690;2023-06-19T11:09:33;98973.80;;;25.30
71081;BMP180;58740;50.672;18.690;2023-06-19T11:12:01;98973.00;;;25.40
71081;BMP180;58740;50.672;18.690;2023-06-19T11:14:30;98969.40;;;25.48
71081;BMP180;58740;50.672;18.690;2023-06-19T11:16:57;98962.80;;;25.50
71081;BMP180;58740;50.672;18.690;2023-06-19T11:19:30;98958.80;;;25.50
71081;BMP180;58740;50.672;18.690;2023-06-19T11:21:58;98958.60;;;25.50
71081;BMP180;58740;50.672;18.690;2023-06-19T11:24:29;98954.60;;;25.50
71081;BMP180;58740;50.672;18.690;2023-06-19T11:26:57;98950.80;;;25.50
71081;BMP180;58740;50.672;18.690;2023-06-19T11:29:29;98957.60;;;25.50
71081;BMP180;58740;50.672;18.690;2023-06-19T11:32:30;98951.60;;;25.50
71081;BMP180;58740;50.672;18.690;2023-06-19T11:35:05;98953.20;;;25.60
71081;BMP180;58740;50.672;18.690;2023-06-19T11:37:35;98949.60;;;25.60
71081;BMP180;58740;50.672;18.690;2023-06-19T11:40:03;98946.60;;;25.64
71081;BMP180;58740;50.672;18.690;2023-06-19T11:42:47;98948.60;;;25.70
71081;BMP180;58740;50.672;18.690;2023-06-19T11:45:15;98946.40;;;25.70
71081;BMP180;58740;50.672;18.690;2023-06-19T11:47:49;98941.40;;;25.70
71081;BMP180;58740;50.672;18.690;2023-06-19T11:50:17;98937.60;;;25.70
71081;BMP180;58740;50.672;18.690;2023-06-19T11:52:46;98935.20;;;25.70
71081;BMP180;58740;50.672;18.690;2023-06-19T11:55:14;98942.40;;;25.74
71081;BMP180;58740;50.672;18.690;2023-06-19T11:57:43;98938.00;;;25.80
71081;BMP180;58740;50.672;18.690;2023-06-19T12:00:16;98943.80;;;25.80
71081;BMP180;58740;50.672;18.690;2023-06-19T12:02:45;98934.40;;;25.80
71081;BMP180;58740;50.672;18.690;2023-06-19T12:05:15;98929.60;;;25.82
71081;BMP180;58740;50.672;18.690;2023-06-19T12:07:43;98927.40;;;25.90
71081;BMP180;58740;50.672;18.690;2023-06-19T12:10:11;98922.20;;;25.90
71081;BMP180;58740;50.672;18.690;2023-06-19T12:12:39;98924.40;;;25.90
71081;BMP180;58740;50.672;18.690;2023-06-19T12:15:07;98926.60;;;26.00
71081;BMP180;58740;50.672;18.690;2023-06-19T12:17:35;98928.40;;;26.00
71081;BMP180;58740;50.672;18.690;2023-06-19T12:20:04;98926.60;;;26.00
71081;BMP180;58740;50.672;18.690;2023-06-19T12:22:36;98931.00;;;26.10
71081;BMP180;58740;50.672;18.690;2023-06-19T12:25:04;98930.40;;;26.10
71081;BMP180;58740;50.672;18.690;2023-06-19T12:27:32;98931.40;;;26.10
71081;BMP180;58740;50.672;18.690;2023-06-19T12:30:01;98926.80;;;26.10
71081;BMP180;58740;50.672;18.690;2023-06-19T12:32:28;98926.00;;;26.20
71081;BMP180;58740;50.672;18.690;2023-06-19T12:34:56;98924.20;;;26.20
71081;BMP180;58740;50.672;18.690;2023-06-19T12:37:24;98925.20;;;26.30
71081;BMP180;58740;50.672;18.690;2023-06-19T12:39:52;98914.00;;;26.30
71081;BMP180;58740;50.672;18.690;2023-06-19T12:42:20;98918.80;;;26.30
71081;BMP180;58740;50.672;18.690;2023-06-19T12:44:48;98922.00;;;26.30
71081;BMP180;58740;50.672;18.690;2023-06-19T12:47:16;98920.20;;;26.30
71081;BMP180;58740;50.672;18.690;2023-06-19T12:49:46;98923.20;;;26.30
71081;BMP180;58740;50.672;18.690;2023-06-19T12:52:14;98917.40;;;26.30
71081;BMP180;58740;50.672;18.690;2023-06-19T12:54:41;98919.60;;;26.30
71081;BMP180;58740;50.672;18.690;2023-06-19T12:57:11;98911.80;;;26.30
71081;BMP180;58740;50.672;18.690;2023-06-19T12:59:38;98911.60;;;26.30
71081;BMP180;58740;50.672;18.690;2023-06-19T13:02:06;98907.00;;;26.30
71081;BMP180;58740;50.672;18.690;2023-06-19T13:04:34;98918.00;;;26.30
71081;BMP180;58740;50.672;18.690;2023-06-19T13:07:02;98914.80;;;26.30
71081;BMP180;58740;50.672;18.690;2023-06-19T13:09:30;98913.40;;;26.20
71081;BMP180;58740;50.672;18.690;2023-06-19T13:11:58;98913.60;;;26.20
71081;BMP180;58740;50.672;18.690;2023-06-19T13:14:27;98911.20;;;26.14
71081;BMP180;58740;50.672;18.690;2023-06-19T13:16:54;98914.20;;;26.14
71081;BMP180;58740;50.672;18.690;2023-06-19T13:19:27;98906.60;;;26.10
71081;BMP180;58740;50.672;18.690;2023-06-19T13:21:55;98903.60;;;26.10
71081;BMP180;58740;50.672;18.690;2023-06-19T13:24:23;98901.40;;;26.02
71081;BMP180;58740;50.672;18.690;2023-06-19T13:26:51;98897.00;;;26.00
71081;BMP180;58740;50.672;18.690;2023-06-19T13:29:19;98896.40;;;26.00
71081;BMP180;58740;50.672;18.690;2023-06-19T13:31:46;98898.00;;;26.00
71081;BMP180;58740;50.672;18.690;2023-06-19T13:34:14;98902.80;;;26.00
71081;BMP180;58740;50.672;18.690;2023-06-19T13:36:42;98898.40;;;26.00
71081;BMP180;58740;50.672;18.690;2023-06-19T13:39:10;98895.60;;;26.00
71081;BMP180;58740;50.672;18.690;2023-06-19T13:41:39;98895.40;;;26.00
71081;BMP180;58740;50.672;18.690;2023-06-19T13:44:07;98892.40;;;26.00
71081;BMP180;58740;50.672;18.690;2023-06-19T13:46:34;98891.20;;;26.00
71081;BMP180;58740;50.672;18.690;2023-06-19T13:49:02;98879.20;;;26.10
71081;BMP180;58740;50.672;18.690;2023-06-19T13:51:31;98881.60;;;26.10
71081;BMP180;58740;50.672;18.690;2023-06-19T13:54:01;98874.60;;;26.10
71081;BMP180;58740;50.672;18.690;2023-06-19T13:56:32;98873.60;;;26.10
71081;BMP180;58740;50.672;18.690;2023-06-19T13:59:00;98877.20;;;26.10
71081;BMP180;58740;50.672;18.690;2023-06-19T14:01:28;98871.60;;;26.10
71081;BMP180;58740;50.672;18.690;2023-06-19T14:03:56;98874.80;;;26.16
71081;BMP180;58740;50.672;18.690;2023-06-19T14:06:25;98880.80;;;26.20
71081;BMP180;58740;50.672;18.690;2023-06-19T14:08:54;98885.60;;;26.20
71081;BMP180;58740;50.672;18.690;2023-06-19T14:11:24;98881.60;;;26.20